Terminal Aerodrome Forecast
Issued by NWS Sterling, VA

Current Version | Previous Version | Text Only | Print | Product List | Glossary Off
Versions: 1 2 3 4 5 6 7 8 9 10 11 12 13 14 15 16 17

000
FTUS41 KLWX 192125 AAA
TAFMRB
TAF AMD
KMRB 192125Z 1921/2018 30018G30KT P6SM BKN045
     FM200200 31015G29KT P6SM SCT050
     FM200600 31011G22KT P6SM FEW250=

USA.gov is the U.S. government's official web portal to all federal, state and local government web resources and services.